Azure — ZCEE2 — position and weather

sailwx.info

Track history (hours):
 
Tides and Currents Weather Stations Pressure Air Temp Water Temp Dewpoint Dewpoint Depression Visibility Wind Speed Wind Dir Waves Ship Positions

Azure

Last reported at 2017-Jun-28 23:00 UTC. Time now 2017-Jun-29 00:52 UTC.
Position N 53°36' W 005°18'.

Length 289 m; draft 8.6 m.

Type: Passenger vessel. MMSI: 310610000.

Wind from 040 at 23 knots

Barometer 1000.6 mb
Air temperature 12.5 ° C
Visibility: greater than 10.8 NM
Dewpoint 8.5 ° C
Water temperature 12.0 ° C

Date/timePositionNaut miles runAvg speedWind from/ knotsBaromVisibWave heightAir tempDewpointWater temp
2017-Jun-28 23:00N 53°36' W 005°18'2013.9 040 / 231000.610.8 12.5 8.512.0
2017-Jun-28 21:33N 53°56' W 005°16'817.4
2017-Jun-28 21:05N 54°04' W 005°16'117.8
2017-Jun-28 21:00N 54°05' W 005°16'918.1
2017-Jun-28 20:30N 54°14' W 005°14'918.0
2017-Jun-28 20:00N 54°23' W 005°13'816.9
2017-Jun-28 19:30N 54°32' W 005°15'816.5
2017-Jun-28 19:01N 54°39' W 005°22'815.3
2017-Jun-28 18:30N 54°45' W 005°30'815.4
2017-Jun-28 18:00N 54°42' W 005°43'611.2
2017-Jun-28 17:30N 54°39' W 005°51'3 1.5
2017-Jun-28 15:39N 54°37' W 005°54'0 0.0
2017-Jun-28 15:18N 54°37' W 005°54'0 0.0
2017-Jun-28 14:45N 54°37' W 005°54'0 0.1
2017-Jun-28 13:55N 54°37' W 005°54'0 1.0
2017-Jun-28 13:51N 54°37' W 005°54'0 0.0
2017-Jun-28 13:29N 54°37' W 005°54'0 0.0
2017-Jun-28 12:57N 54°37' W 005°54'0 0.0
2017-Jun-28 12:26N 54°37' W 005°54'0 0.0
2017-Jun-28 11:46N 54°37' W 005°54'0 0.0
2017-Jun-28 11:22N 54°37' W 005°54'0 0.0
2017-Jun-28 10:24N 54°37' W 005°54'0 0.0
2017-Jun-28 09:57N 54°37' W 005°54'0 0.0
2017-Jun-28 09:27N 54°37' W 005°54'0 0.0
2017-Jun-28 08:51N 54°37' W 005°54'0 0.0
2017-Jun-28 08:18N 54°37' W 005°54'0 0.0
2017-Jun-28 07:51N 54°37' W 005°54'0 0.0
2017-Jun-28 07:30N 54°37' W 005°54'0 0.0
2017-Jun-28 06:33N 54°37' W 005°54'0 0.0
2017-Jun-28 05:30N 54°37' W 005°54'0 0.1
2017-Jun-28 04:12N 54°37' W 005°54'0 1.8
2017-Jun-28 03:57N 54°37' W 005°54'1 2.1
2017-Jun-28 03:30N 54°38' W 005°53'5 9.7
2017-Jun-28 03:00N 54°42' W 005°47'4 7.2
2017-Jun-28 02:30N 54°44' W 005°41'3 6.7
2017-Jun-28 02:00N 54°46' W 005°37'713.4
2017-Jun-28 01:30N 54°53' W 005°37'713.2
2017-Jun-28 01:00N 54°59' W 005°40'1213.3
2017-Jun-28 00:07N 55°09' W 005°52'213.9
2017-Jun-27 23:59N 55°10' W 005°53'714.3
2017-Jun-27 23:30N 55°16' W 006°01'714.6
2017-Jun-27 23:00N 55°21' W 006°09'4673.8
2017-Jun-27 23:00N 55°18' W 006°12'715.3 090 / 301003.5 5.4 13.112.412.0
2017-Jun-27 22:30N 55°24' W 006°20'714.5
2017-Jun-27 22:00N 55°29' W 006°29'815.3
2017-Jun-27 21:30N 55°35' W 006°39'815.1
2017-Jun-27 21:00N 55°40' W 006°48'714.6
2017-Jun-27 20:31N 55°46' W 006°56'714.4
2017-Jun-27 20:00N 55°52' W 007°02'16913.0
2017-Jun-27 07:00N 58°36' W 005°48'274 7.8 080 / 301009.810.8 11.5 8.513.0
2017-Jun-25 20:00N 62°12' W 011°30'13410.3 020 / 301012.710.8 9.0 1.811.0
2017-Jun-25 07:00N 62°42' W 016°12'   050 / 241011.010.8 9.0 1.811.0
2017-Jun-22 23:00N 66°24' W 020°06'250 8.6 030 / 14994.1 0.3 5.5 4.3 6.0
2017-Jun-21 18:00N 65°42' W 010°00'20818.9 130 / 181007.4 5.4 8.0 5.8 7.0
2017-Jun-21 07:00N 64°12' W 002°36'253 9.4 270 / 81015.0 5.4 9.0 6.9 9.0
2017-Jun-20 04:14N 62°27' E 005°56'9711.4
2017-Jun-19 19:44N 61°03' E 004°15'314.1
2017-Jun-19 19:30N 60°60' E 004°18'714.0
2017-Jun-19 19:00N 60°53' E 004°23'714.7
2017-Jun-19 18:30N 60°47' E 004°31'714.4
2017-Jun-19 18:00N 60°44' E 004°45'714.0
2017-Jun-19 17:29N 60°38' E 004°53'714.5
2017-Jun-19 17:00N 60°31' E 004°57'714.6
2017-Jun-19 16:30N 60°25' E 005°04'510.5
2017-Jun-19 16:00N 60°24' E 005°15'2 4.0
2017-Jun-19 15:30N 60°24' E 005°19'0 0.0
2017-Jun-19 15:00N 60°24' E 005°19'0 0.0
2017-Jun-19 14:00N 60°24' E 005°19'0 0.0
2017-Jun-19 13:30N 60°24' E 005°19'0 0.0
2017-Jun-19 12:48N 60°24' E 005°19'0 0.0
2017-Jun-19 12:30N 60°24' E 005°19'0 0.0
2017-Jun-19 12:00N 60°24' E 005°19'0 0.0
2017-Jun-19 11:30N 60°24' E 005°19'0 0.0
2017-Jun-19 11:00N 60°24' E 005°19'0 0.0
2017-Jun-19 10:30N 60°24' E 005°19'0 0.0
2017-Jun-19 10:00N 60°24' E 005°19'0 0.0
2017-Jun-19 09:30N 60°24' E 005°19'0 0.0
2017-Jun-19 09:00N 60°24' E 005°19'0 0.0
2017-Jun-19 08:30N 60°24' E 005°19'0 0.0
2017-Jun-19 08:00N 60°24' E 005°19'0 0.0
2017-Jun-19 07:30N 60°24' E 005°19'0 0.0
2017-Jun-19 07:00N 60°24' E 005°19'0 0.0
2017-Jun-19 06:30N 60°24' E 005°19'0 0.0
2017-Jun-19 06:00N 60°24' E 005°19'0 0.2
2017-Jun-19 05:31N 60°24' E 005°19'4 8.2
2017-Jun-19 05:00N 60°23' E 005°11'612.2
2017-Jun-19 04:30N 60°27' E 005°01'713.1
2017-Jun-19 04:00N 60°33' E 004°56'713.1
2017-Jun-19 03:29N 60°39' E 004°52'612.7
2017-Jun-19 03:00N 60°44' E 004°44'610.9
2017-Jun-19 02:30N 60°42' E 004°33'713.9
2017-Jun-19 02:00N 60°36' E 004°28'  
Track history (hours):
 
Tides and Currents Weather Stations Pressure Air Temp Water Temp Dewpoint Dewpoint Depression Visibility Wind Speed Wind Dir Waves Ship Positions

Azure

Last reported at 2017-Jun-28 23:00 UTC. Time now 2017-Jun-29 00:52 UTC.
Position N 53°36' W 005°18'.

Length 289 m; draft 8.6 m.

Type: Passenger vessel. MMSI: 310610000.

Wind from 040 at 23 knots

Barometer 1000.6 mb
Air temperature 12.5 ° C
Visibility: greater than 10.8 NM
Dewpoint 8.5 ° C
Water temperature 12.0 ° C

Date/timePositionNaut miles runAvg speedWind from/ knotsBaromVisibWave heightAir tempDewpointWater temp
2017-Jun-28 23:00N 53°36' W 005°18'2013.9 040 / 231000.610.8 12.5 8.512.0
2017-Jun-28 21:33N 53°56' W 005°16'817.4
2017-Jun-28 21:05N 54°04' W 005°16'117.8
2017-Jun-28 21:00N 54°05' W 005°16'918.1
2017-Jun-28 20:30N 54°14' W 005°14'918.0
2017-Jun-28 20:00N 54°23' W 005°13'816.9
2017-Jun-28 19:30N 54°32' W 005°15'816.5
2017-Jun-28 19:01N 54°39' W 005°22'815.3
2017-Jun-28 18:30N 54°45' W 005°30'815.4
2017-Jun-28 18:00N 54°42' W 005°43'611.2
2017-Jun-28 17:30N 54°39' W 005°51'3 1.5
2017-Jun-28 15:39N 54°37' W 005°54'0 0.0
2017-Jun-28 15:18N 54°37' W 005°54'0 0.0
2017-Jun-28 14:45N 54°37' W 005°54'0 0.1
2017-Jun-28 13:55N 54°37' W 005°54'0 1.0
2017-Jun-28 13:51N 54°37' W 005°54'0 0.0
2017-Jun-28 13:29N 54°37' W 005°54'0 0.0
2017-Jun-28 12:57N 54°37' W 005°54'0 0.0
2017-Jun-28 12:26N 54°37' W 005°54'0 0.0
2017-Jun-28 11:46N 54°37' W 005°54'0 0.0
2017-Jun-28 11:22N 54°37' W 005°54'0 0.0
2017-Jun-28 10:24N 54°37' W 005°54'0 0.0
2017-Jun-28 09:57N 54°37' W 005°54'0 0.0
2017-Jun-28 09:27N 54°37' W 005°54'0 0.0
2017-Jun-28 08:51N 54°37' W 005°54'0 0.0
2017-Jun-28 08:18N 54°37' W 005°54'0 0.0
2017-Jun-28 07:51N 54°37' W 005°54'0 0.0
2017-Jun-28 07:30N 54°37' W 005°54'0 0.0
2017-Jun-28 06:33N 54°37' W 005°54'0 0.0
2017-Jun-28 05:30N 54°37' W 005°54'0 0.1
2017-Jun-28 04:12N 54°37' W 005°54'0 1.8
2017-Jun-28 03:57N 54°37' W 005°54'1 2.1
2017-Jun-28 03:30N 54°38' W 005°53'5 9.7
2017-Jun-28 03:00N 54°42' W 005°47'4 7.2
2017-Jun-28 02:30N 54°44' W 005°41'3 6.7
2017-Jun-28 02:00N 54°46' W 005°37'713.4
2017-Jun-28 01:30N 54°53' W 005°37'713.2
2017-Jun-28 01:00N 54°59' W 005°40'1213.3
2017-Jun-28 00:07N 55°09' W 005°52'213.9
2017-Jun-27 23:59N 55°10' W 005°53'714.3
2017-Jun-27 23:30N 55°16' W 006°01'714.6
2017-Jun-27 23:00N 55°21' W 006°09'4673.8
2017-Jun-27 23:00N 55°18' W 006°12'715.3 090 / 301003.5 5.4 13.112.412.0
2017-Jun-27 22:30N 55°24' W 006°20'714.5
2017-Jun-27 22:00N 55°29' W 006°29'815.3
2017-Jun-27 21:30N 55°35' W 006°39'815.1
2017-Jun-27 21:00N 55°40' W 006°48'714.6
2017-Jun-27 20:31N 55°46' W 006°56'714.4
2017-Jun-27 20:00N 55°52' W 007°02'16913.0
2017-Jun-27 07:00N 58°36' W 005°48'274 7.8 080 / 301009.810.8 11.5 8.513.0
2017-Jun-25 20:00N 62°12' W 011°30'13410.3 020 / 301012.710.8 9.0 1.811.0
2017-Jun-25 07:00N 62°42' W 016°12'   050 / 241011.010.8 9.0 1.811.0
2017-Jun-22 23:00N 66°24' W 020°06'250 8.6 030 / 14994.1 0.3 5.5 4.3 6.0
2017-Jun-21 18:00N 65°42' W 010°00'20818.9 130 / 181007.4 5.4 8.0 5.8 7.0
2017-Jun-21 07:00N 64°12' W 002°36'253 9.4 270 / 81015.0 5.4 9.0 6.9 9.0
2017-Jun-20 04:14N 62°27' E 005°56'9711.4
2017-Jun-19 19:44N 61°03' E 004°15'314.1
2017-Jun-19 19:30N 60°60' E 004°18'714.0
2017-Jun-19 19:00N 60°53' E 004°23'714.7
2017-Jun-19 18:30N 60°47' E 004°31'714.4
2017-Jun-19 18:00N 60°44' E 004°45'714.0
2017-Jun-19 17:29N 60°38' E 004°53'714.5
2017-Jun-19 17:00N 60°31' E 004°57'714.6
2017-Jun-19 16:30N 60°25' E 005°04'510.5
2017-Jun-19 16:00N 60°24' E 005°15'2 4.0
2017-Jun-19 15:30N 60°24' E 005°19'0 0.0
2017-Jun-19 15:00N 60°24' E 005°19'0 0.0
2017-Jun-19 14:00N 60°24' E 005°19'0 0.0
2017-Jun-19 13:30N 60°24' E 005°19'0 0.0
2017-Jun-19 12:48N 60°24' E 005°19'0 0.0
2017-Jun-19 12:30N 60°24' E 005°19'0 0.0
2017-Jun-19 12:00N 60°24' E 005°19'0 0.0
2017-Jun-19 11:30N 60°24' E 005°19'0 0.0
2017-Jun-19 11:00N 60°24' E 005°19'0 0.0
2017-Jun-19 10:30N 60°24' E 005°19'0 0.0
2017-Jun-19 10:00N 60°24' E 005°19'0 0.0
2017-Jun-19 09:30N 60°24' E 005°19'0 0.0
2017-Jun-19 09:00N 60°24' E 005°19'0 0.0
2017-Jun-19 08:30N 60°24' E 005°19'0 0.0
2017-Jun-19 08:00N 60°24' E 005°19'0 0.0
2017-Jun-19 07:30N 60°24' E 005°19'0 0.0
2017-Jun-19 07:00N 60°24' E 005°19'0 0.0
2017-Jun-19 06:30N 60°24' E 005°19'0 0.0
2017-Jun-19 06:00N 60°24' E 005°19'0 0.2
2017-Jun-19 05:31N 60°24' E 005°19'4 8.2
2017-Jun-19 05:00N 60°23' E 005°11'612.2
2017-Jun-19 04:30N 60°27' E 005°01'713.1
2017-Jun-19 04:00N 60°33' E 004°56'713.1
2017-Jun-19 03:29N 60°39' E 004°52'612.7
2017-Jun-19 03:00N 60°44' E 004°44'610.9
2017-Jun-19 02:30N 60°42' E 004°33'713.9
2017-Jun-19 02:00N 60°36' E 004°28'  

Dump ship's entire track history